Terminal Aerodrome Forecast
Issued by NWS Cleveland, OH

Home | Current Version | Previous Version | Graphics & Text | Print | Product List | Glossary On
Versions: 1 2 3 4 5 6 7 8 9 10 11 12 13 14 15 16 17 18 19 20 21 22 23 24 25 26 27 28
000
FTUS41 KCLE 281500 AAA
TAFCLE
TAF AMD
KCLE 281514Z 2815/2918 21012G20KT P6SM BKN035 OVC100
     FM281800 22020G30KT 5SM -SHRA VCTS OVC035CB
     FM282000 25015G25KT P6SM BKN030 OVC250
     FM282300 26010KT P6SM SCT030 OVC200
     FM291000 26010KT P6SM BKN030=

USA.gov is the U.S. government's official web portal to all federal, state and local government web resources and services.